Startpagina
METAR-TAF:

METAR-TAF

Vliegvelden :

Diest, België

Schaffen

breedte: 51-00N, lengte: 005-04E, hoogte: 30 m

Actueel weer

Dit bericht is 21 minuten geleden gemaakt, om 06:25 UTC
Wind 10 kt uit het zuidwesten
Temperatuur 15°C
Vochtigheid 82%
Druk 1011 hPa
Zicht 10 km of meer
Weinig wolken op 1600 ft

METAR: EBDT 280625Z 23010KT 9999 FEW016 15/12 Q1011 BLU BLU TEMPO WHT

Tijdstip: 08:46 (06:46 UTC)

Verwachting

Dit bericht is 1 uur en het 5 minuten geleden gemaakt, om 05:41 UTC
Verwachting geldig van 28 om 07 UTC tot 28 om 16 UTC
Wind 8 kt uit het westzuidwesten
Zicht 10 km of meer
Weinig wolken op 2000 ft
Wijzigt naar
van 28 om 08 UTC tot 28 om 10 UTC
Wind 12 kt uit het westzuidwesten met uitschieters tot 22 kt
Weinig wolken op 2500 ft
Tijdelijke
van 27 om 10 UTC tot 27 om 16 UTC
Zicht: 5000 m
Verspreide wolken op 2000 ft
Gebroken wolken op 4000 ft
lichte regenbuien

TAF: EBDT 280541Z 2807/2816 24008KT 9999 FEW020 BECMG 2808/2810 24012G22KT FEW025 TEMPO 2710/2716 5000 -SHRA SCT020 BKN040

Waarnemingen en weersverwachtingen van meer dan 4000 vliegvelden (METAR en TAF).

De beschikbare stations zijn de gele en rode punten op de kaart.

Ga met uw muis naar het station om de naam te zien.

Klik dan om waarnemingen en weersverwachtingen te zien.

kaart wijzigen: klik op de groene knoppen met een zwart kruis om in te zoomen, op de groene knop met een streepje om uit te zoomen of op de groene pijlen voor aangrenzende kaarten.


METAR-TAF: